Time;durP1;ratioP1;P1;durP2;ratioP2;P2;SDS_P1;SDS_P2;PMS_P1;PMS_P2;Temp;Humidity;BMP_temperature;BMP_pressure;BME280_temperature;BME280_humidity;BME280_pressure;Samples;Min_cycle;Max_cycle;Signal;HPM_P1;HPM_P2
2024/01/23 00:01:43;;;;;;;1.10;1.10;;;;;;;4.76;84.13;97473.16;4959695;28;20150;-74
2024/01/23 00:04:11;;;;;;;1.02;1.02;;;;;;;4.83;84.08;97475.16;4953397;28;20043;-74
2024/01/23 00:06:39;;;;;;;1.02;1.02;;;;;;;4.73;84.31;97470.84;4955327;28;20039;-74
2024/01/23 00:09:06;;;;;;;0.98;0.98;;;;;;;4.71;84.23;97467.53;4953779;28;20122;-73
2024/01/23 00:11:34;;;;;;;1.00;1.00;;;;;;;4.73;84.27;97460.25;4955054;28;20116;-74
2024/01/23 00:14:03;;;;;;;0.80;0.80;;;;;;;4.71;84.60;97466.69;4954461;28;20066;-74
2024/01/23 00:16:31;;;;;;;1.08;1.08;;;;;;;4.68;84.57;97473.13;4947809;28;20517;-74
2024/01/23 00:18:58;;;;;;;1.00;1.00;;;;;;;4.67;84.72;97473.31;4955841;28;20050;-74
2024/01/23 00:21:26;;;;;;;0.75;0.75;;;;;;;4.69;84.81;97466.84;4953648;28;20546;-74
2024/01/23 00:23:54;;;;;;;0.88;0.88;;;;;;;4.68;84.82;97480.22;4952076;28;20043;-74
2024/01/23 00:26:21;;;;;;;1.30;1.30;;;;;;;4.63;85.35;97488.66;4954477;28;20035;-74
2024/01/23 00:28:49;;;;;;;0.82;0.82;;;;;;;4.67;85.54;97486.53;4955337;28;20053;-74
2024/01/23 00:31:18;;;;;;;1.00;1.00;;;;;;;4.67;86.03;97495.25;4955247;28;20051;-74
2024/01/23 00:33:46;;;;;;;0.95;0.95;;;;;;;4.63;86.70;97499.22;4952322;28;20047;-74
2024/01/23 00:36:14;;;;;;;0.75;0.75;;;;;;;4.61;86.89;97501.19;4955184;28;20075;-74
2024/01/23 00:38:41;;;;;;;1.30;1.30;;;;;;;4.63;87.11;97506.31;4955689;28;20126;-73
2024/01/23 00:41:09;;;;;;;1.35;1.35;;;;;;;4.71;87.06;97495.78;4954988;28;20138;-73
2024/01/23 00:43:37;;;;;;;0.75;0.75;;;;;;;4.68;87.43;97488.97;4953782;28;20049;-73
2024/01/23 00:46:04;;;;;;;1.33;1.33;;;;;;;4.65;87.68;97499.91;4953803;28;20054;-73
2024/01/23 00:48:33;;;;;;;0.70;0.70;;;;;;;4.66;87.77;97493.63;4953764;28;20051;-73
2024/01/23 00:51:01;;;;;;;1.30;1.30;;;;;;;4.59;88.40;97494.41;4954135;28;20554;-73
2024/01/23 00:53:28;;;;;;;0.77;0.77;;;;;;;4.57;88.58;97497.19;4954386;28;20051;-73
2024/01/23 00:55:58;;;;;;;1.00;1.00;;;;;;;4.60;88.37;97507.47;4953214;28;20039;-73
2024/01/23 00:58:25;;;;;;;1.00;1.00;;;;;;;4.61;88.10;97503.84;4952796;28;20165;-73
2024/01/23 01:00:53;;;;;;;0.90;0.90;;;;;;;4.71;87.62;97507.19;4952965;28;20039;-73
2024/01/23 01:03:20;;;;;;;0.82;0.82;;;;;;;4.72;87.32;97497.44;4953185;28;20062;-73
2024/01/23 01:05:49;;;;;;;0.88;0.88;;;;;;;4.66;87.98;97501.56;4952665;28;20049;-74
2024/01/23 01:08:17;;;;;;;0.28;0.28;;;;;;;4.59;88.12;97497.88;4950847;28;20048;-74
2024/01/23 01:10:47;;;;;;;1.25;1.25;;;;;;;4.59;88.16;97510.25;4953721;29;20051;-74
2024/01/23 01:13:15;;;;;;;1.58;1.58;;;;;;;4.65;87.72;97491.13;4953463;28;20150;-74
2024/01/23 01:15:42;;;;;;;1.00;1.00;;;;;;;4.64;87.40;97508.81;4952406;28;20511;-73
2024/01/23 01:18:10;;;;;;;0.22;0.22;;;;;;;4.65;87.09;97521.03;4953039;28;20114;-73
2024/01/23 01:20:38;;;;;;;0.32;0.32;;;;;;;4.59;87.29;97513.72;4950240;29;20400;-74
2024/01/23 01:23:07;;;;;;;1.38;1.38;;;;;;;4.64;86.77;97502.69;4953542;28;20051;-73
2024/01/23 01:25:35;;;;;;;0.32;0.32;;;;;;;4.62;86.96;97494.91;4945288;28;20559;-73
2024/01/23 01:28:03;;;;;;;0.30;0.30;;;;;;;4.57;87.26;97510.41;4952944;28;20469;-72
2024/01/23 01:30:31;;;;;;;0.93;0.93;;;;;;;4.54;87.34;97517.84;4953550;28;20043;-73
2024/01/23 01:32:58;;;;;;;0.88;0.88;;;;;;;4.58;87.37;97537.66;4952975;28;21359;-73
2024/01/23 01:35:26;;;;;;;0.82;0.82;;;;;;;4.55;87.36;97540.66;4952020;28;20102;-73
2024/01/23 01:37:54;;;;;;;0.80;0.80;;;;;;;4.57;87.47;97533.41;4952201;28;20047;-73
2024/01/23 01:40:22;;;;;;;0.85;0.85;;;;;;;4.67;86.86;97510.31;4950619;29;20049;-71
2024/01/23 01:42:52;;;;;;;1.10;1.10;;;;;;;4.69;86.42;97530.28;4952368;28;20035;-73
2024/01/23 01:45:20;;;;;;;1.17;1.17;;;;;;;4.77;86.25;97532.16;4952273;28;20047;-74
2024/01/23 01:47:48;;;;;;;1.02;1.02;;;;;;;4.70;86.34;97547.81;4952040;28;20490;-74
2024/01/23 01:50:15;;;;;;;1.00;1.00;;;;;;;4.71;86.35;97520.41;4935637;28;20054;-74
2024/01/23 01:52:42;;;;;;;1.02;1.02;;;;;;;4.72;86.43;97529.97;4953217;28;20047;-74
2024/01/23 01:55:10;;;;;;;0.90;0.90;;;;;;;4.72;86.21;97532.63;4954348;28;20054;-73
2024/01/23 01:57:40;;;;;;;0.95;0.95;;;;;;;4.70;86.21;97534.59;4953043;28;20110;-72
2024/01/23 02:00:09;;;;;;;1.13;1.13;;;;;;;4.70;86.42;97547.81;4949673;28;20051;-72
2024/01/23 02:02:41;;;;;;;1.02;1.02;;;;;;;4.71;86.13;97538.91;4950528;28;20071;-73
2024/01/23 02:05:09;;;;;;;1.02;1.02;;;;;;;4.70;86.65;97531.13;4948793;28;20108;-73
2024/01/23 02:07:38;;;;;;;0.95;0.95;;;;;;;4.67;86.86;97528.81;4953921;28;20053;-73
2024/01/23 02:10:07;;;;;;;1.10;1.10;;;;;;;4.61;86.75;97537.38;4955760;28;20051;-73
2024/01/23 02:12:34;;;;;;;1.58;1.58;;;;;;;4.56;86.95;97556.34;4950698;28;20061;-72
2024/01/23 02:15:04;;;;;;;0.85;0.85;;;;;;;4.56;87.24;97548.44;4956382;28;20565;-72
2024/01/23 02:17:32;;;;;;;1.10;1.10;;;;;;;4.51;87.57;97552.50;4956372;28;20035;-74
2024/01/23 02:19:59;;;;;;;1.40;1.40;;;;;;;4.52;87.73;97547.06;4955208;28;20110;-72
2024/01/23 02:22:27;;;;;;;1.75;1.75;;;;;;;4.51;87.44;97548.06;4952074;28;20495;-73
2024/01/23 02:24:56;;;;;;;1.52;1.52;;;;;;;4.55;87.30;97557.34;4953333;28;20051;-74
2024/01/23 02:27:23;;;;;;;1.05;1.05;;;;;;;4.55;86.90;97559.97;4956485;28;20738;-73
2024/01/23 02:29:51;;;;;;;1.10;1.10;;;;;;;4.58;86.25;97564.09;4956669;28;20043;-73
2024/01/23 02:32:19;;;;;;;0.95;0.95;;;;;;;4.64;86.08;97564.31;4956377;28;20051;-74
2024/01/23 02:34:46;;;;;;;0.98;0.98;;;;;;;4.61;85.73;97563.78;4956119;28;20043;-74
2024/01/23 02:37:14;;;;;;;0.95;0.95;;;;;;;4.56;85.95;97564.28;4956011;28;20047;-74
2024/01/23 02:39:42;;;;;;;0.90;0.90;;;;;;;4.57;85.65;97557.97;4949779;28;20054;-74
2024/01/23 02:42:11;;;;;;;0.82;0.82;;;;;;;4.61;85.35;97555.88;4955883;28;20094;-74
2024/01/23 02:44:40;;;;;;;0.68;0.68;;;;;;;4.62;85.11;97560.16;4956034;28;20047;-74
2024/01/23 02:47:08;;;;;;;0.73;0.73;;;;;;;4.61;84.73;97555.88;4960187;29;20143;-74
2024/01/23 02:49:36;;;;;;;0.85;0.85;;;;;;;4.67;83.32;97556.03;4956040;28;20050;-74
2024/01/23 02:52:04;;;;;;;0.95;0.95;;;;;;;4.64;83.46;97559.03;4956123;28;20102;-74
2024/01/23 02:54:32;;;;;;;1.00;1.00;;;;;;;4.61;83.32;97554.06;4955261;28;20162;-73
2024/01/23 02:56:59;;;;;;;0.40;0.40;;;;;;;4.65;82.98;97560.69;4954004;28;20402;-73
2024/01/23 02:59:28;;;;;;;0.88;0.88;;;;;;;4.63;83.13;97567.94;4954158;28;20059;-73
2024/01/23 03:01:56;;;;;;;1.42;1.42;;;;;;;4.63;82.79;97575.03;4955188;28;20549;-74
2024/01/23 03:04:25;;;;;;;1.23;1.23;;;;;;;4.68;82.85;97575.38;4953450;28;20062;-73
2024/01/23 03:06:53;;;;;;;0.88;0.88;;;;;;;4.64;82.50;97579.34;4955176;28;20043;-73
2024/01/23 03:09:20;;;;;;;0.85;0.85;;;;;;;4.66;82.14;97574.72;4955426;28;20047;-72
2024/01/23 03:11:48;;;;;;;0.85;0.85;;;;;;;4.65;81.88;97573.06;4955484;28;20098;-72
2024/01/23 03:14:15;;;;;;;1.10;1.10;;;;;;;4.62;82.20;97576.84;4955767;28;20051;-73
2024/01/23 03:16:44;;;;;;;1.20;1.20;;;;;;;4.68;81.67;97588.59;4959884;28;20043;-73
2024/01/23 03:19:12;;;;;;;0.70;0.70;;;;;;;4.69;81.66;97585.81;4959238;28;20051;-72
2024/01/23 03:21:39;;;;;;;1.05;1.05;;;;;;;4.68;81.53;97597.34;4960468;28;20043;-72
2024/01/23 03:24:07;;;;;;;1.15;1.15;;;;;;;4.73;81.52;97599.53;4961778;28;20058;-72
2024/01/23 03:26:35;;;;;;;1.15;1.15;;;;;;;4.75;81.13;97598.41;4960621;28;20379;-72
2024/01/23 03:29:02;;;;;;;1.15;1.15;;;;;;;4.76;81.00;97594.78;4959092;28;20043;-73
2024/01/23 03:31:30;;;;;;;0.93;0.93;;;;;;;4.86;80.91;97592.00;4955750;28;20574;-73
2024/01/23 03:33:59;;;;;;;0.95;0.95;;;;;;;4.89;80.45;97582.91;4955534;28;20051;-73
2024/01/23 03:36:27;;;;;;;1.17;1.17;;;;;;;4.88;80.77;97597.16;4956292;28;20534;-73
2024/01/23 03:38:54;;;;;;;0.20;0.20;;;;;;;4.89;80.41;97599.59;4956815;28;20474;-73
2024/01/23 03:41:22;;;;;;;0.80;0.80;;;;;;;4.94;80.10;97599.13;4956272;28;20123;-73
2024/01/23 03:43:49;;;;;;;0.77;0.77;;;;;;;4.93;80.04;97603.59;4956837;28;20043;-73
2024/01/23 03:46:17;;;;;;;0.30;0.30;;;;;;;4.93;79.83;97616.81;4954510;28;20778;-73
2024/01/23 03:48:44;;;;;;;1.00;1.00;;;;;;;4.94;79.67;97622.94;4953993;28;20046;-73
2024/01/23 03:51:14;;;;;;;0.77;0.77;;;;;;;4.97;79.54;97617.34;4957482;28;20074;-73
2024/01/23 03:53:42;;;;;;;1.00;1.00;;;;;;;4.96;79.44;97618.31;4956446;28;20070;-73
2024/01/23 03:56:09;;;;;;;1.20;1.20;;;;;;;4.95;79.47;97609.56;4956178;28;20055;-73
2024/01/23 03:58:37;;;;;;;1.17;1.17;;;;;;;4.99;79.82;97610.06;4952262;28;20055;-73
2024/01/23 04:01:04;;;;;;;0.20;0.20;;;;;;;4.94;80.05;97609.72;4954804;28;20389;-73
2024/01/23 04:03:33;;;;;;;1.08;1.08;;;;;;;4.91;80.23;97618.78;4954190;28;20589;-73
2024/01/23 04:06:00;;;;;;;1.00;1.00;;;;;;;4.91;80.28;97623.25;4954970;28;20121;-73
2024/01/23 04:08:29;;;;;;;0.95;0.95;;;;;;;4.85;80.57;97623.91;4953621;28;20039;-73
2024/01/23 04:10:57;;;;;;;1.45;1.45;;;;;;;4.92;80.17;97615.16;4953224;28;20050;-73
2024/01/23 04:13:25;;;;;;;1.10;1.10;;;;;;;4.91;80.27;97615.31;4953479;28;20130;-73
2024/01/23 04:15:52;;;;;;;0.88;0.88;;;;;;;4.83;80.60;97626.69;4954314;28;20054;-73
2024/01/23 04:18:20;;;;;;;0.40;0.40;;;;;;;4.83;80.68;97631.16;4953607;28;20374;-73
2024/01/23 04:20:48;;;;;;;0.82;0.82;;;;;;;4.86;80.57;97622.91;4950366;28;20055;-73
2024/01/23 04:23:15;;;;;;;1.20;1.20;;;;;;;4.80;81.03;97622.53;4953078;28;20047;-74
2024/01/23 04:25:44;;;;;;;0.82;0.82;;;;;;;4.79;81.10;97615.59;4956015;28;20133;-73
2024/01/23 04:28:12;;;;;;;1.58;1.58;;;;;;;4.73;81.70;97624.16;4951552;28;20043;-73
2024/01/23 04:30:39;;;;;;;0.77;0.77;;;;;;;4.73;81.80;97641.84;4937549;29;20055;-73
2024/01/23 04:33:07;;;;;;;0.90;0.90;;;;;;;4.68;82.17;97659.97;4949770;28;20053;-72
2024/01/23 04:35:35;;;;;;;0.70;0.70;;;;;;;4.62;83.08;97660.59;4943416;28;20054;-72
2024/01/23 04:38:03;;;;;;;0.73;0.73;;;;;;;4.61;83.31;97667.69;4952064;28;20567;-72
2024/01/23 04:40:30;;;;;;;1.30;1.30;;;;;;;4.59;83.44;97677.59;4952447;28;20058;-72
2024/01/23 04:42:59;;;;;;;0.70;0.70;;;;;;;4.56;84.05;97671.81;4953063;28;20050;-72
2024/01/23 04:45:26;;;;;;;1.10;1.10;;;;;;;4.51;83.81;97679.34;4953306;28;20051;-72
2024/01/23 04:47:54;;;;;;;0.82;0.82;;;;;;;4.57;83.01;97686.69;4952791;28;20046;-72
2024/01/23 04:50:22;;;;;;;0.75;0.75;;;;;;;4.52;84.21;97687.13;4953074;28;20126;-72
2024/01/23 04:52:48;;;;;;;0.80;0.80;;;;;;;4.46;84.69;97703.63;4953369;28;20061;-72
2024/01/23 04:55:16;;;;;;;;;;;;;;;4.42;85.18;97720.75;4951143;28;20115;-72
2024/01/23 04:57:43;;;;;;;0.95;0.95;;;;;;;4.33;86.21;97726.94;4952412;28;20394;-72
2024/01/23 05:00:14;;;;;;;0.68;0.68;;;;;;;4.17;85.84;97740.81;4953745;28;20078;-72
2024/01/23 05:02:41;;;;;;;1.00;1.00;;;;;;;3.97;86.88;97755.16;4950876;28;20121;-72
2024/01/23 05:05:09;;;;;;;1.17;1.17;;;;;;;3.89;86.85;97779.66;4952560;28;20218;-72
2024/01/23 05:07:37;;;;;;;0.98;0.98;;;;;;;3.75;87.34;97760.84;4952682;28;20123;-74
2024/01/23 05:10:05;;;;;;;1.00;1.00;;;;;;;3.75;87.57;97772.25;4950196;28;20051;-73
2024/01/23 05:12:33;;;;;;;0.20;0.20;;;;;;;3.54;88.10;97761.09;4954001;28;20690;-74
2024/01/23 05:15:03;;;;;;;0.80;0.80;;;;;;;3.43;88.14;97763.91;4953861;28;20054;-73
2024/01/23 05:17:32;;;;;;;1.10;1.10;;;;;;;3.38;88.90;97764.38;4953202;28;20513;-72
2024/01/23 05:20:00;;;;;;;0.88;0.88;;;;;;;3.37;89.84;97778.53;4937102;29;20039;-71
2024/01/23 05:22:28;;;;;;;0.98;0.98;;;;;;;3.38;89.79;97771.47;4952996;28;20055;-71
2024/01/23 05:24:55;;;;;;;0.77;0.77;;;;;;;3.41;89.50;97779.94;4953770;28;20047;-72
2024/01/23 05:27:23;;;;;;;0.90;0.90;;;;;;;3.42;88.97;97792.13;4951903;28;20104;-73
2024/01/23 05:29:51;;;;;;;0.80;0.80;;;;;;;3.41;88.75;97798.38;4954050;28;20118;-74
2024/01/23 05:32:18;;;;;;;1.02;1.02;;;;;;;3.36;89.09;97803.25;4953021;28;20051;-72
2024/01/23 05:34:47;;;;;;;0.90;0.90;;;;;;;3.31;89.30;97814.25;4953126;28;20050;-73
2024/01/23 05:37:15;;;;;;;1.38;1.38;;;;;;;3.31;89.19;97810.78;4950426;28;20050;-71
2024/01/23 05:39:43;;;;;;;1.35;1.35;;;;;;;3.33;89.45;97819.34;4952685;28;20526;-74
2024/01/23 05:42:10;;;;;;;0.35;0.35;;;;;;;3.30;89.69;97836.31;4952051;28;20454;-72
2024/01/23 05:44:38;;;;;;;1.10;1.10;;;;;;;3.30;89.57;97828.41;4952510;28;20050;-73
2024/01/23 05:47:08;;;;;;;0.95;0.95;;;;;;;3.38;88.81;97821.56;4952369;28;20054;-73
2024/01/23 05:49:35;;;;;;;0.82;0.82;;;;;;;3.32;88.70;97829.06;4952390;28;20051;-71
2024/01/23 05:52:05;;;;;;;0.85;0.85;;;;;;;3.38;88.69;97830.31;4951466;28;20054;-73
2024/01/23 05:54:33;;;;;;;1.30;1.30;;;;;;;3.22;89.43;97838.00;4952397;28;20094;-73
2024/01/23 05:57:00;;;;;;;0.10;0.10;;;;;;;3.15;89.90;97844.81;4952629;28;20451;-73
2024/01/23 05:59:28;;;;;;;1.08;1.08;;;;;;;3.04;90.20;97839.69;4952097;28;20122;-73
2024/01/23 06:01:56;;;;;;;1.20;1.20;;;;;;;2.98;90.39;97840.28;4952208;28;20051;-73
2024/01/23 06:04:23;;;;;;;1.15;1.15;;;;;;;3.04;89.92;97853.72;4952082;28;20050;-71
2024/01/23 06:06:51;;;;;;;0.70;0.70;;;;;;;3.08;90.05;97863.00;4952735;28;20051;-70
2024/01/23 06:09:20;;;;;;;0.93;0.93;;;;;;;3.05;90.20;97862.47;4951746;28;20066;-69
2024/01/23 06:11:47;;;;;;;0.25;0.25;;;;;;;3.11;89.65;97860.09;4951365;28;20468;-70
2024/01/23 06:14:15;;;;;;;0.77;0.77;;;;;;;3.13;88.90;97865.22;4952989;28;20058;-69
2024/01/23 06:16:42;;;;;;;1.23;1.23;;;;;;;3.13;88.22;97868.69;4949221;28;20058;-70
2024/01/23 06:19:10;;;;;;;1.00;1.00;;;;;;;3.20;87.82;97872.44;4948942;28;20068;-69
2024/01/23 06:21:39;;;;;;;0.75;0.75;;;;;;;3.22;87.79;97882.81;4946662;28;20093;-70
2024/01/23 06:24:07;;;;;;;0.77;0.77;;;;;;;3.22;87.50;97883.66;4952338;28;20550;-70
2024/01/23 06:26:36;;;;;;;0.85;0.85;;;;;;;3.25;87.52;97896.56;4950869;28;20127;-69
2024/01/23 06:29:04;;;;;;;1.27;1.27;;;;;;;3.22;87.38;97898.63;4944764;28;20058;-69
2024/01/23 06:31:31;;;;;;;0.40;0.40;;;;;;;3.19;87.60;97896.31;4946087;28;20329;-69
2024/01/23 06:34:00;;;;;;;0.93;0.93;;;;;;;3.12;87.28;97909.19;4948896;28;20043;-70
2024/01/23 06:36:29;;;;;;;0.95;0.95;;;;;;;3.08;87.01;97920.19;4948330;28;20066;-70
2024/01/23 06:38:57;;;;;;;1.10;1.10;;;;;;;3.09;86.38;97914.78;4949941;28;20047;-70
2024/01/23 06:41:25;;;;;;;1.05;1.05;;;;;;;3.14;86.01;97925.72;4943119;28;20058;-70
2024/01/23 06:43:53;;;;;;;0.98;0.98;;;;;;;3.21;85.45;97933.94;4948349;28;20039;-70
2024/01/23 06:46:21;;;;;;;1.20;1.20;;;;;;;3.20;85.52;97930.47;4949748;28;20126;-71
2024/01/23 06:48:49;;;;;;;2.05;2.05;;;;;;;3.10;85.71;97942.81;4952137;28;20043;-71
2024/01/23 06:51:17;;;;;;;0.98;0.98;;;;;;;3.12;85.04;97932.94;4952678;28;20705;-70
2024/01/23 06:53:44;;;;;;;0.22;0.22;;;;;;;3.20;84.85;97946.28;4950494;28;20462;-71
2024/01/23 06:56:12;;;;;;;0.65;0.65;;;;;;;3.13;84.47;97947.78;4950905;28;20051;-71
2024/01/23 06:58:39;;;;;;;1.20;1.20;;;;;;;3.18;84.70;97957.94;4955369;28;20047;-71
2024/01/23 07:01:08;;;;;;;1.05;1.05;;;;;;;3.22;84.43;97959.28;4954045;28;20087;-71
2024/01/23 07:03:36;;;;;;;0.65;0.65;;;;;;;3.14;84.92;97962.63;4955913;28;20161;-71
2024/01/23 07:06:04;;;;;;;0.30;0.30;;;;;;;3.14;84.77;97973.19;4956040;28;20258;-72
2024/01/23 07:08:32;;;;;;;0.95;0.95;;;;;;;3.09;85.23;97996.50;4955812;28;20069;-72
2024/01/23 07:11:00;;;;;;;0.90;0.90;;;;;;;3.11;85.06;98004.28;4952198;28;20047;-72
2024/01/23 07:13:27;;;;;;;1.05;1.05;;;;;;;3.18;84.53;98016.78;4946413;28;20047;-72
2024/01/23 07:15:55;;;;;;;0.90;0.90;;;;;;;3.16;84.76;98024.00;4951310;28;20501;-72
2024/01/23 07:18:24;;;;;;;1.02;1.02;;;;;;;3.20;84.76;98024.56;4954632;28;20127;-72
2024/01/23 07:20:52;;;;;;;0.98;0.98;;;;;;;3.31;84.19;98022.63;4953098;28;20051;-72
2024/01/23 07:23:19;;;;;;;0.93;0.93;;;;;;;3.20;84.31;98019.28;4955794;28;20039;-73
2024/01/23 07:25:47;;;;;;;1.13;1.13;;;;;;;3.26;84.63;98037.19;4954347;29;20063;-70
2024/01/23 07:28:14;;;;;;;0.30;0.30;;;;;;;3.19;84.94;98044.00;4955998;28;20314;-70
2024/01/23 07:31:01;;;;;;;1.10;1.10;;;;;;;3.23;84.83;98056.75;4951056;28;20053;-70
2024/01/23 07:33:30;;;;;;;1.63;1.63;;;;;;;3.27;84.85;98057.31;4954335;28;20047;-70
2024/01/23 07:35:58;;;;;;;0.85;0.85;;;;;;;3.14;85.34;98062.00;4947587;28;20530;-72
2024/01/23 07:38:26;;;;;;;0.28;0.28;;;;;;;3.12;85.63;98054.22;4950748;28;20463;-71
2024/01/23 07:40:53;;;;;;;1.23;1.23;;;;;;;3.18;85.30;98053.69;4954519;28;20503;-72
2024/01/23 07:43:26;;;;;;;1.13;1.13;;;;;;;3.19;85.05;98059.81;4940070;28;20070;-70
2024/01/23 07:45:53;;;;;;;;;;;;;;;3.14;85.12;98059.38;4956004;28;20055;-70
2024/01/23 07:48:27;;;;;;;1.13;1.13;;;;;;;3.17;85.28;98065.22;4945154;28;19926;-70
2024/01/23 07:50:56;;;;;;;0.95;0.95;;;;;;;3.24;85.09;98062.84;4947746;28;20051;-70
2024/01/23 07:53:23;;;;;;;1.08;1.08;;;;;;;3.24;85.05;98071.59;4953517;28;20130;-70
2024/01/23 07:55:52;;;;;;;0.30;0.30;;;;;;;3.22;85.18;98073.53;4954888;28;20483;-70
2024/01/23 07:58:19;;;;;;;0.80;0.80;;;;;;;3.15;85.63;98082.13;4956771;28;20065;-70
2024/01/23 08:00:47;;;;;;;0.65;0.65;;;;;;;3.22;85.26;98092.00;4955833;28;20058;-70
2024/01/23 08:03:15;;;;;;;0.93;0.93;;;;;;;3.19;85.64;98102.00;4954694;28;20055;-72
2024/01/23 08:05:42;;;;;;;0.75;0.75;;;;;;;3.17;85.74;98104.78;4955238;28;20054;-71
2024/01/23 08:08:12;;;;;;;0.77;0.77;;;;;;;3.28;85.38;98102.03;4961415;28;20057;-72
2024/01/23 08:10:39;;;;;;;0.80;0.80;;;;;;;3.24;85.67;98102.41;4956585;28;20041;-71
2024/01/23 08:13:07;;;;;;;0.95;0.95;;;;;;;3.24;85.81;98107.69;4956381;28;20054;-71
2024/01/23 08:15:34;;;;;;;1.02;1.02;;;;;;;3.14;86.05;98107.66;4956438;28;20051;-71
2024/01/23 08:18:03;;;;;;;0.98;0.98;;;;;;;3.02;86.68;98105.28;4955032;28;20070;-71
2024/01/23 08:20:32;;;;;;;1.08;1.08;;;;;;;2.97;86.98;98102.22;4951997;28;20036;-71
2024/01/23 08:22:59;;;;;;;1.17;1.17;;;;;;;2.96;86.91;98104.03;4950491;28;20078;-71
2024/01/23 08:25:29;;;;;;;0.93;0.93;;;;;;;2.99;86.67;98113.47;4958659;28;20117;-71
2024/01/23 08:27:57;;;;;;;0.70;0.70;;;;;;;3.09;86.02;98123.06;4952437;28;20055;-71
2024/01/23 08:30:24;;;;;;;0.90;0.90;;;;;;;3.21;85.10;98121.16;4953764;28;20043;-72
2024/01/23 08:32:52;;;;;;;1.02;1.02;;;;;;;3.24;85.06;98128.78;4960825;28;20047;-72
2024/01/23 08:35:20;;;;;;;1.10;1.10;;;;;;;3.36;84.46;98119.78;4950393;28;20099;-72
2024/01/23 08:37:47;;;;;;;1.83;1.83;;;;;;;3.45;84.15;98129.53;4947102;28;20039;-72
2024/01/23 08:40:16;;;;;;;0.88;0.88;;;;;;;3.45;83.69;98124.25;4956269;28;20062;-72
2024/01/23 08:42:45;;;;;;;0.38;0.38;;;;;;;3.44;83.66;98114.66;4951600;28;20406;-72
2024/01/23 08:45:13;;;;;;;1.15;1.15;;;;;;;3.46;83.40;98114.53;4949187;28;20094;-72
2024/01/23 08:47:40;;;;;;;1.10;1.10;;;;;;;3.57;82.94;98128.44;4955849;28;20050;-72
2024/01/23 08:50:09;;;;;;;0.68;0.68;;;;;;;3.65;82.76;98136.47;4948784;28;20043;-73
2024/01/23 08:52:36;;;;;;;0.90;0.90;;;;;;;3.66;82.51;98150.53;4953176;28;20541;-73
2024/01/23 08:55:05;;;;;;;1.00;1.00;;;;;;;3.72;81.74;98146.50;4953364;28;20071;-73
2024/01/23 08:57:33;;;;;;;1.00;1.00;;;;;;;3.74;81.67;98148.00;4953404;28;20051;-72
2024/01/23 09:00:03;;;;;;;1.25;1.25;;;;;;;3.75;81.76;98144.41;4956704;28;20044;-72
2024/01/23 09:02:31;;;;;;;1.10;1.10;;;;;;;3.77;81.31;98150.38;4952245;28;20545;-71
2024/01/23 09:04:59;;;;;;;0.10;0.10;;;;;;;3.84;81.37;98163.88;4952397;28;20390;-72
2024/01/23 09:07:27;;;;;;;1.10;1.10;;;;;;;3.95;80.91;98167.19;4950632;28;20047;-70
2024/01/23 09:09:55;;;;;;;1.58;1.58;;;;;;;3.95;81.05;98175.13;4953605;28;20490;-73
2024/01/23 09:12:22;;;;;;;0.80;0.80;;;;;;;3.93;80.96;98169.16;4948089;28;20043;-71
2024/01/23 09:14:50;;;;;;;1.48;1.48;;;;;;;4.04;80.68;98181.41;4945270;28;20503;-71
2024/01/23 09:17:19;;;;;;;0.30;0.30;;;;;;;4.01;80.78;98190.44;4951811;28;20426;-71
2024/01/23 09:19:49;;;;;;;1.02;1.02;;;;;;;4.06;80.57;98200.56;4957328;28;20137;-71
2024/01/23 09:22:17;;;;;;;1.05;1.05;;;;;;;4.02;80.08;98202.66;4952828;28;20192;-71
2024/01/23 09:24:45;;;;;;;1.10;1.10;;;;;;;4.06;79.59;98201.41;4952500;28;20039;-71
2024/01/23 09:27:12;;;;;;;0.75;0.75;;;;;;;4.07;79.97;98207.50;4944963;28;20050;-71
2024/01/23 09:29:42;;;;;;;1.27;1.27;;;;;;;4.09;79.45;98215.31;4952645;28;20035;-71
2024/01/23 09:32:11;;;;;;;0.93;0.93;;;;;;;4.19;79.89;98213.50;4947509;28;20121;-71
2024/01/23 09:34:38;;;;;;;0.40;0.40;;;;;;;4.16;79.88;98221.69;4951983;28;20426;-71
2024/01/23 09:37:06;;;;;;;0.85;0.85;;;;;;;4.19;79.75;98229.34;4950711;28;20567;-71
2024/01/23 09:39:34;;;;;;;0.65;0.65;;;;;;;4.21;79.65;98241.44;4953324;28;20054;-71
2024/01/23 09:42:02;;;;;;;1.00;1.00;;;;;;;4.28;79.54;98250.47;4952328;28;20059;-71
2024/01/23 09:44:31;;;;;;;1.05;1.05;;;;;;;4.32;79.38;98253.69;4948491;28;20150;-71
2024/01/23 09:46:59;;;;;;;0.90;0.90;;;;;;;4.30;79.46;98248.53;4954979;28;20051;-71
2024/01/23 09:49:27;;;;;;;0.98;0.98;;;;;;;4.32;79.58;98256.31;4955199;28;20047;-71
2024/01/23 09:52:01;;;;;;;1.17;1.17;;;;;;;4.34;79.77;98254.38;4955019;28;20074;-70
2024/01/23 09:54:31;;;;;;;1.00;1.00;;;;;;;4.34;79.31;98264.97;4956967;28;20696;-71
2024/01/23 09:56:59;;;;;;;0.82;0.82;;;;;;;4.35;78.83;98264.00;4951601;28;20039;-70
2024/01/23 09:59:26;;;;;;;1.13;1.13;;;;;;;4.33;78.15;98250.91;4954244;28;20118;-71
2024/01/23 10:01:55;;;;;;;0.80;0.80;;;;;;;4.32;78.77;98253.69;4947846;28;20043;-70
2024/01/23 10:04:23;;;;;;;1.00;1.00;;;;;;;4.40;78.40;98262.59;4946984;28;20054;-70
2024/01/23 10:06:51;;;;;;;0.80;0.80;;;;;;;4.42;78.39;98267.72;4946482;28;20066;-71
2024/01/23 10:09:20;;;;;;;0.77;0.77;;;;;;;4.42;78.00;98267.72;4947805;28;20061;-70
2024/01/23 10:11:47;;;;;;;1.15;1.15;;;;;;;4.39;78.50;98268.00;4946231;28;20153;-70
2024/01/23 10:14:15;;;;;;;0.95;0.95;;;;;;;4.41;78.07;98277.47;4949610;28;20126;-70
2024/01/23 10:16:43;;;;;;;0.88;0.88;;;;;;;4.38;78.07;98283.03;4951613;28;20051;-70
2024/01/23 10:19:11;;;;;;;1.05;1.05;;;;;;;4.44;78.22;98273.72;4950855;28;20054;-71
2024/01/23 10:21:40;;;;;;;1.20;1.20;;;;;;;4.50;77.86;98280.25;4949216;28;20039;-71
2024/01/23 10:24:08;;;;;;;0.85;0.85;;;;;;;4.46;78.24;98278.88;4952636;28;20062;-71
2024/01/23 10:26:37;;;;;;;1.17;1.17;;;;;;;4.40;78.32;98280.25;4952963;28;20061;-71
2024/01/23 10:29:05;;;;;;;0.30;0.30;;;;;;;4.43;78.49;98278.16;4953029;28;20410;-71
2024/01/23 10:31:36;;;;;;;1.15;1.15;;;;;;;4.42;78.58;98280.94;4955421;28;20050;-71
2024/01/23 10:34:04;;;;;;;1.10;1.10;;;;;;;4.42;78.61;98270.38;4955811;28;20058;-71
2024/01/23 10:36:32;;;;;;;1.13;1.13;;;;;;;4.44;78.54;98279.00;4955973;28;20054;-71
2024/01/23 10:39:01;;;;;;;1.10;1.10;;;;;;;4.42;78.47;98271.22;4955253;28;20140;-71
2024/01/23 10:41:30;;;;;;;0.93;0.93;;;;;;;4.48;78.48;98283.03;4955747;28;20035;-71
2024/01/23 10:43:59;;;;;;;0.80;0.80;;;;;;;4.51;77.02;98268.69;4955522;28;20058;-71
2024/01/23 10:46:28;;;;;;;0.93;0.93;;;;;;;4.55;76.55;98276.22;4955555;28;20102;-70
2024/01/23 10:48:56;;;;;;;1.00;1.00;;;;;;;4.57;77.40;98271.59;4958253;28;20054;-71
2024/01/23 10:51:30;;;;;;;0.90;0.90;;;;;;;4.53;76.82;98279.97;4955864;28;20051;-71
2024/01/23 10:54:04;;;;;;;0.90;0.90;;;;;;;4.60;77.10;98281.91;4952844;28;20114;-71
2024/01/23 10:56:35;;;;;;;0.95;0.95;;;;;;;4.56;77.05;98293.75;4954068;28;20312;-71
2024/01/23 10:59:06;;;;;;;0.88;0.88;;;;;;;4.55;77.04;98292.09;4955409;28;20047;-71
2024/01/23 11:01:39;;;;;;;1.02;1.02;;;;;;;4.59;77.02;98295.25;4954773;28;20047;-70
2024/01/23 11:04:07;;;;;;;1.00;1.00;;;;;;;4.66;77.25;98304.31;4955377;28;20565;-70
2024/01/23 11:06:39;;;;;;;0.40;0.40;;;;;;;4.63;76.86;98307.22;4954634;28;20398;-71
2024/01/23 11:09:12;;;;;;;0.30;0.30;;;;;;;4.59;76.47;98316.41;4954506;28;20435;-71
2024/01/23 11:11:47;;;;;;;0.40;0.40;;;;;;;4.65;77.15;98323.78;4954222;28;20402;-71
2024/01/23 11:14:18;;;;;;;0.98;0.98;;;;;;;4.61;76.86;98325.03;4955128;28;20074;-71
2024/01/23 11:17:00;;;;;;;0.75;0.75;;;;;;;4.56;76.69;98322.81;4954389;28;20062;-71
2024/01/23 11:19:29;;;;;;;0.88;0.88;;;;;;;4.60;76.87;98326.84;4954562;28;20148;-71
2024/01/23 11:22:03;;;;;;;0.88;0.88;;;;;;;4.61;77.08;98325.03;4948505;28;20532;-71
2024/01/23 11:24:41;;;;;;;0.30;0.30;;;;;;;4.59;76.06;98333.09;4954834;28;20480;-71
2024/01/23 11:27:10;;;;;;;0.95;0.95;;;;;;;4.63;76.35;98342.44;4949871;28;20047;-71
2024/01/23 11:29:39;;;;;;;1.17;1.17;;;;;;;4.64;75.67;98328.25;4954273;28;20134;-71
2024/01/23 11:32:22;;;;;;;0.82;0.82;;;;;;;4.62;75.99;98330.19;4954289;28;20043;-71
2024/01/23 11:34:59;;;;;;;1.00;1.00;;;;;;;4.67;75.85;98335.06;4961295;28;20129;-70
2024/01/23 11:37:35;;;;;;;0.95;0.95;;;;;;;4.65;75.66;98343.13;4959310;28;20075;-72
2024/01/23 11:40:04;;;;;;;0.95;0.95;;;;;;;4.61;76.17;98333.81;4953156;28;20189;-70
2024/01/23 11:42:37;;;;;;;0.20;0.20;;;;;;;4.63;76.21;98345.09;4959099;28;20436;-70
2024/01/23 11:45:26;;;;;;;;;;;;;;;4.63;76.61;98341.59;4953601;28;20054;-70
2024/01/23 11:47:54;;;;;;;;;;;;;;;4.65;76.54;98337.00;4955884;28;19980;-70
2024/01/23 11:50:22;;;;;;;0.90;0.90;;;;;;;4.69;76.70;98331.28;4974380;28;19957;-70